Prairie City, OR (97869)

7:42 AM PST on February 10, 2016 (GMT -0800)
SW Prairie City | | Change Station
CLOSE
Current Station
Personal Weather Station
Location: Prairie City, OR
Elevation: 3547 ft
Nearby Weather Stations

Elev 3547 ft 44.45 °N, 118.72 °W | Updated 10 minutes ago

Partly Cloudy
Partly Cloudy
28.2 °F
Feels Like 28 °F
N
0.0
Wind Variable Wind from North
Gusts 0.0 mph

Today
High -- | Low -- °F
--% Chance of Precip.
Yesterday
High -- | Low -- °F
Precip. -- in
Pressure 30.29 in
Visibility 10.0 miles
Clouds Clear
Windchill 28 °F
Dew Point 23 °F
Humidity 80%
Rainfall 0.00 in
Snow Depth Not available.
7:02 AM 5:16 PM
Waxing Crescent, 6% visible
METAR KGCD 101535Z AUTO 10009KT 050V150 10SM CLR 04/M02 A3029 RMK AO2 T00381018
Pressure 30.29 in
Visibility 10.0 miles
Clouds Clear
Windchill 28 °F
Dew Point 23 °F
Humidity 80%
Rainfall 0.00 in
Snow Depth Not available.
7:02 AM 5:16 PM
Waxing Crescent, 6% visible
METAR KGCD 101535Z AUTO 10009KT 050V150 10SM CLR 04/M02 A3029 RMK AO2 T00381018

10-Day Weather Forecast

Almanac

Astronomy

Feb. 10, 2016 Rise Set
Actual Time
Civil Twilight
Nautical Twilight
Astronomical Twilight
Moon
Length of Visible Light
Length of Day
Tomorrow will be .
, % of the Moon is Illuminated

Today's Extremes

State Highs State Lows

Community

WunderPhotos

Upload Photos

1,891,863 photos uploaded!

WunderBlog® & News

Nearby

Air Quality

  Air Quality AQ Index Pollutant
Not available.

Snow Depth

Station Depth Elevation

Earthquake Activity

City Distance Mag. Time & Date
Minimum magnitude displayed is 2.5.

Coastal Water Temperatures

Place Temperature

Stations

Nearby Weather Stations

Station Location Temp. Windchill Dew Point Humidity Wind Precip. Elev Updated Type
                   

Watches & Warnings

There are currently no watches in effect.